sensor_id;sensor_type;location;lat;lon;timestamp;P1;durP1;ratioP1;P2;durP2;ratioP2
17496;SDS011;62150;43.582;1.456;2024-03-23T04:39:02;5.50;;;2.80;;
17496;SDS011;62150;43.582;1.456;2024-03-23T04:41:29;7.83;;;3.17;;
17496;SDS011;62150;43.582;1.456;2024-03-23T04:43:57;8.67;;;3.30;;
17496;SDS011;62150;43.582;1.456;2024-03-23T04:46:24;7.70;;;3.20;;
17496;SDS011;62150;43.582;1.456;2024-03-23T04:48:52;8.63;;;3.40;;
17496;SDS011;62150;43.582;1.456;2024-03-23T04:51:21;6.57;;;3.30;;
17496;SDS011;62150;43.582;1.456;2024-03-23T04:53:49;6.37;;;2.90;;
17496;SDS011;62150;43.582;1.456;2024-03-23T04:56:18;7.27;;;3.00;;
17496;SDS011;62150;43.582;1.456;2024-03-23T04:58:45;8.03;;;3.00;;
17496;SDS011;62150;43.582;1.456;2024-03-23T05:01:12;6.67;;;2.90;;
17496;SDS011;62150;43.582;1.456;2024-03-23T05:03:39;7.17;;;2.57;;
17496;SDS011;62150;43.582;1.456;2024-03-23T05:06:06;5.53;;;2.60;;
17496;SDS011;62150;43.582;1.456;2024-03-23T05:08:33;5.40;;;2.40;;
17496;SDS011;62150;43.582;1.456;2024-03-23T05:11:00;6.43;;;2.50;;
17496;SDS011;62150;43.582;1.456;2024-03-23T05:13:29;6.50;;;2.63;;
17496;SDS011;62150;43.582;1.456;2024-03-23T05:15:56;6.67;;;2.47;;
17496;SDS011;62150;43.582;1.456;2024-03-23T05:18:24;7.77;;;2.80;;
17496;SDS011;62150;43.582;1.456;2024-03-23T05:20:55;6.53;;;2.67;;
17496;SDS011;62150;43.582;1.456;2024-03-23T05:23:22;5.33;;;2.80;;
17496;SDS011;62150;43.582;1.456;2024-03-23T05:25:50;5.90;;;2.80;;
17496;SDS011;62150;43.582;1.456;2024-03-23T05:28:17;6.57;;;2.60;;
17496;SDS011;62150;43.582;1.456;2024-03-23T05:30:51;6.63;;;2.70;;
17496;SDS011;62150;43.582;1.456;2024-03-23T05:33:18;7.73;;;2.60;;
17496;SDS011;62150;43.582;1.456;2024-03-23T05:35:45;5.10;;;2.60;;
17496;SDS011;62150;43.582;1.456;2024-03-23T05:38:20;6.70;;;2.40;;
17496;SDS011;62150;43.582;1.456;2024-03-23T05:40:52;9.00;;;2.60;;
17496;SDS011;62150;43.582;1.456;2024-03-23T05:43:19;5.50;;;2.47;;
17496;SDS011;62150;43.582;1.456;2024-03-23T05:45:54;7.27;;;2.60;;
17496;SDS011;62150;43.582;1.456;2024-03-23T05:48:21;6.43;;;2.47;;
17496;SDS011;62150;43.582;1.456;2024-03-23T05:50:49;6.40;;;2.80;;
17496;SDS011;62150;43.582;1.456;2024-03-23T05:53:16;5.67;;;2.50;;
17496;SDS011;62150;43.582;1.456;2024-03-23T05:55:44;7.10;;;2.70;;
17496;SDS011;62150;43.582;1.456;2024-03-23T05:58:11;6.40;;;2.63;;
17496;SDS011;62150;43.582;1.456;2024-03-23T06:00:38;6.80;;;2.50;;
17496;SDS011;62150;43.582;1.456;2024-03-23T06:03:06;5.50;;;2.43;;
17496;SDS011;62150;43.582;1.456;2024-03-23T06:05:34;5.77;;;2.10;;
17496;SDS011;62150;43.582;1.456;2024-03-23T06:08:00;4.57;;;2.23;;
17496;SDS011;62150;43.582;1.456;2024-03-23T06:10:28;5.63;;;2.50;;
17496;SDS011;62150;43.582;1.456;2024-03-23T06:12:54;5.10;;;2.40;;
17496;SDS011;62150;43.582;1.456;2024-03-23T06:15:22;7.57;;;2.70;;
17496;SDS011;62150;43.582;1.456;2024-03-23T06:17:49;5.90;;;2.63;;
17496;SDS011;62150;43.582;1.456;2024-03-23T06:20:18;7.20;;;2.37;;
17496;SDS011;62150;43.582;1.456;2024-03-23T06:22:44;6.10;;;2.63;;
17496;SDS011;62150;43.582;1.456;2024-03-23T06:25:12;6.63;;;2.77;;
17496;SDS011;62150;43.582;1.456;2024-03-23T06:27:39;8.50;;;2.80;;
17496;SDS011;62150;43.582;1.456;2024-03-23T06:30:07;4.67;;;2.20;;
17496;SDS011;62150;43.582;1.456;2024-03-23T06:32:33;5.23;;;2.30;;
17496;SDS011;62150;43.582;1.456;2024-03-23T06:35:01;5.87;;;2.47;;
17496;SDS011;62150;43.582;1.456;2024-03-23T06:37:35;5.80;;;2.47;;
17496;SDS011;62150;43.582;1.456;2024-03-23T06:40:04;5.27;;;2.50;;
17496;SDS011;62150;43.582;1.456;2024-03-23T06:42:34;7.53;;;2.60;;
17496;SDS011;62150;43.582;1.456;2024-03-23T06:45:02;5.97;;;2.50;;
17496;SDS011;62150;43.582;1.456;2024-03-23T06:47:30;5.57;;;2.50;;
17496;SDS011;62150;43.582;1.456;2024-03-23T06:49:58;7.17;;;2.57;;
17496;SDS011;62150;43.582;1.456;2024-03-23T06:52:27;7.13;;;2.60;;
17496;SDS011;62150;43.582;1.456;2024-03-23T06:54:56;8.53;;;2.70;;
17496;SDS011;62150;43.582;1.456;2024-03-23T06:57:23;6.07;;;2.37;;
17496;SDS011;62150;43.582;1.456;2024-03-23T06:59:50;5.97;;;2.43;;
17496;SDS011;62150;43.582;1.456;2024-03-23T07:02:17;4.33;;;2.23;;
17496;SDS011;62150;43.582;1.456;2024-03-23T07:04:45;6.30;;;2.40;;
17496;SDS011;62150;43.582;1.456;2024-03-23T07:07:11;6.93;;;2.60;;
17496;SDS011;62150;43.582;1.456;2024-03-23T07:09:39;5.30;;;2.47;;
17496;SDS011;62150;43.582;1.456;2024-03-23T07:12:07;5.47;;;2.43;;
17496;SDS011;62150;43.582;1.456;2024-03-23T07:14:34;4.73;;;2.30;;
17496;SDS011;62150;43.582;1.456;2024-03-23T07:17:01;4.57;;;2.17;;
17496;SDS011;62150;43.582;1.456;2024-03-23T07:19:28;6.73;;;2.60;;
17496;SDS011;62150;43.582;1.456;2024-03-23T07:21:55;5.70;;;2.43;;
17496;SDS011;62150;43.582;1.456;2024-03-23T07:24:22;7.47;;;2.67;;
17496;SDS011;62150;43.582;1.456;2024-03-23T07:26:49;5.87;;;2.37;;
17496;SDS011;62150;43.582;1.456;2024-03-23T07:29:20;5.97;;;2.60;;
17496;SDS011;62150;43.582;1.456;2024-03-23T07:31:48;4.20;;;2.00;;
17496;SDS011;62150;43.582;1.456;2024-03-23T07:34:15;3.93;;;1.80;;
17496;SDS011;62150;43.582;1.456;2024-03-23T07:36:42;2.10;;;1.50;;
17496;SDS011;62150;43.582;1.456;2024-03-23T07:39:09;1.20;;;1.10;;
17496;SDS011;62150;43.582;1.456;2024-03-23T07:41:36;1.00;;;1.00;;
17496;SDS011;62150;43.582;1.456;2024-03-23T07:44:04;3.50;;;1.37;;
17496;SDS011;62150;43.582;1.456;2024-03-23T07:46:32;4.93;;;1.60;;
17496;SDS011;62150;43.582;1.456;2024-03-23T07:49:00;3.93;;;1.60;;
17496;SDS011;62150;43.582;1.456;2024-03-23T07:51:27;3.67;;;1.70;;
17496;SDS011;62150;43.582;1.456;2024-03-23T07:53:54;4.37;;;1.93;;
17496;SDS011;62150;43.582;1.456;2024-03-23T07:56:21;5.37;;;1.80;;
17496;SDS011;62150;43.582;1.456;2024-03-23T07:58:49;4.27;;;1.90;;
17496;SDS011;62150;43.582;1.456;2024-03-23T08:01:16;3.87;;;1.77;;
17496;SDS011;62150;43.582;1.456;2024-03-23T08:03:45;4.27;;;1.60;;
17496;SDS011;62150;43.582;1.456;2024-03-23T08:06:12;2.57;;;1.60;;
17496;SDS011;62150;43.582;1.456;2024-03-23T08:08:42;5.00;;;1.50;;
17496;SDS011;62150;43.582;1.456;2024-03-23T08:11:09;3.93;;;1.50;;
17496;SDS011;62150;43.582;1.456;2024-03-23T08:13:38;2.63;;;1.40;;
17496;SDS011;62150;43.582;1.456;2024-03-23T08:16:05;4.10;;;1.40;;
17496;SDS011;62150;43.582;1.456;2024-03-23T08:18:33;4.00;;;1.50;;
17496;SDS011;62150;43.582;1.456;2024-03-23T08:21:02;2.93;;;1.40;;
17496;SDS011;62150;43.582;1.456;2024-03-23T08:23:31;5.53;;;1.67;;
17496;SDS011;62150;43.582;1.456;2024-03-23T08:25:59;4.10;;;1.90;;
17496;SDS011;62150;43.582;1.456;2024-03-23T08:28:30;3.97;;;1.70;;
17496;SDS011;62150;43.582;1.456;2024-03-23T08:31:00;3.83;;;1.80;;
17496;SDS011;62150;43.582;1.456;2024-03-23T08:33:28;7.77;;;1.70;;
17496;SDS011;62150;43.582;1.456;2024-03-23T08:35:55;6.07;;;1.67;;
17496;SDS011;62150;43.582;1.456;2024-03-23T08:38:25;4.83;;;1.70;;
17496;SDS011;62150;43.582;1.456;2024-03-23T08:40:56;6.17;;;1.90;;
17496;SDS011;62150;43.582;1.456;2024-03-23T08:43:24;5.63;;;1.70;;
17496;SDS011;62150;43.582;1.456;2024-03-23T08:45:51;7.90;;;2.00;;
17496;SDS011;62150;43.582;1.456;2024-03-23T08:48:18;6.00;;;1.80;;
17496;SDS011;62150;43.582;1.456;2024-03-23T08:50:45;4.53;;;1.53;;
17496;SDS011;62150;43.582;1.456;2024-03-23T08:53:14;5.57;;;1.87;;
17496;SDS011;62150;43.582;1.456;2024-03-23T08:55:42;5.63;;;1.70;;
17496;SDS011;62150;43.582;1.456;2024-03-23T08:58:18;6.20;;;1.90;;
17496;SDS011;62150;43.582;1.456;2024-03-23T09:00:46;6.13;;;1.90;;
17496;SDS011;62150;43.582;1.456;2024-03-23T09:03:14;7.70;;;1.80;;
17496;SDS011;62150;43.582;1.456;2024-03-23T09:05:40;4.67;;;1.77;;
17496;SDS011;62150;43.582;1.456;2024-03-23T09:08:08;7.50;;;1.87;;
17496;SDS011;62150;43.582;1.456;2024-03-23T09:10:37;5.03;;;1.60;;
17496;SDS011;62150;43.582;1.456;2024-03-23T09:13:07;6.20;;;1.60;;
17496;SDS011;62150;43.582;1.456;2024-03-23T09:15:34;4.57;;;1.60;;
17496;SDS011;62150;43.582;1.456;2024-03-23T09:18:02;6.33;;;2.00;;
17496;SDS011;62150;43.582;1.456;2024-03-23T09:20:32;6.50;;;2.10;;
17496;SDS011;62150;43.582;1.456;2024-03-23T09:22:59;5.90;;;1.87;;
17496;SDS011;62150;43.582;1.456;2024-03-23T09:25:26;6.73;;;1.90;;
17496;SDS011;62150;43.582;1.456;2024-03-23T09:27:53;5.53;;;1.80;;
17496;SDS011;62150;43.582;1.456;2024-03-23T09:30:21;8.47;;;2.00;;
17496;SDS011;62150;43.582;1.456;2024-03-23T09:32:49;6.77;;;1.90;;
17496;SDS011;62150;43.582;1.456;2024-03-23T09:35:15;9.50;;;2.10;;
17496;SDS011;62150;43.582;1.456;2024-03-23T09:37:43;6.67;;;1.80;;
17496;SDS011;62150;43.582;1.456;2024-03-23T09:40:11;7.97;;;1.70;;
17496;SDS011;62150;43.582;1.456;2024-03-23T09:42:38;7.30;;;2.27;;
17496;SDS011;62150;43.582;1.456;2024-03-23T09:45:13;8.43;;;1.93;;
17496;SDS011;62150;43.582;1.456;2024-03-23T09:47:47;6.63;;;2.00;;
17496;SDS011;62150;43.582;1.456;2024-03-23T09:50:15;6.53;;;1.60;;
17496;SDS011;62150;43.582;1.456;2024-03-23T09:52:45;8.07;;;1.80;;
17496;SDS011;62150;43.582;1.456;2024-03-23T09:55:12;6.07;;;1.80;;
17496;SDS011;62150;43.582;1.456;2024-03-23T09:57:40;8.03;;;2.00;;
17496;SDS011;62150;43.582;1.456;2024-03-23T10:00:07;6.60;;;1.90;;
17496;SDS011;62150;43.582;1.456;2024-03-23T10:02:37;8.13;;;2.17;;
17496;SDS011;62150;43.582;1.456;2024-03-23T10:05:06;9.07;;;2.07;;
17496;SDS011;62150;43.582;1.456;2024-03-23T10:07:48;7.10;;;1.90;;
17496;SDS011;62150;43.582;1.456;2024-03-23T10:10:15;7.17;;;2.10;;
17496;SDS011;62150;43.582;1.456;2024-03-23T10:12:44;6.13;;;2.00;;
17496;SDS011;62150;43.582;1.456;2024-03-23T10:15:15;7.33;;;1.80;;
17496;SDS011;62150;43.582;1.456;2024-03-23T10:17:45;6.33;;;1.87;;
17496;SDS011;62150;43.582;1.456;2024-03-23T10:20:13;5.77;;;1.90;;
17496;SDS011;62150;43.582;1.456;2024-03-23T10:22:48;6.47;;;1.97;;
17496;SDS011;62150;43.582;1.456;2024-03-23T10:25:15;8.90;;;1.83;;
17496;SDS011;62150;43.582;1.456;2024-03-23T10:27:42;5.57;;;2.10;;
17496;SDS011;62150;43.582;1.456;2024-03-23T10:30:09;5.70;;;1.90;;
17496;SDS011;62150;43.582;1.456;2024-03-23T10:32:38;9.13;;;1.93;;
17496;SDS011;62150;43.582;1.456;2024-03-23T10:35:16;8.67;;;2.00;;
17496;SDS011;62150;43.582;1.456;2024-03-23T10:37:45;7.10;;;1.80;;
17496;SDS011;62150;43.582;1.456;2024-03-23T10:40:12;9.00;;;2.27;;
17496;SDS011;62150;43.582;1.456;2024-03-23T10:42:40;5.47;;;1.77;;
17496;SDS011;62150;43.582;1.456;2024-03-23T10:45:08;5.43;;;1.70;;
17496;SDS011;62150;43.582;1.456;2024-03-23T10:47:36;6.00;;;1.67;;
17496;SDS011;62150;43.582;1.456;2024-03-23T10:50:03;6.33;;;1.70;;
17496;SDS011;62150;43.582;1.456;2024-03-23T10:52:33;7.10;;;2.13;;
17496;SDS011;62150;43.582;1.456;2024-03-23T10:55:00;6.37;;;1.80;;
17496;SDS011;62150;43.582;1.456;2024-03-23T10:57:34;6.10;;;1.67;;
17496;SDS011;62150;43.582;1.456;2024-03-23T11:00:05;8.27;;;2.23;;
17496;SDS011;62150;43.582;1.456;2024-03-23T11:02:35;5.23;;;1.80;;
17496;SDS011;62150;43.582;1.456;2024-03-23T11:05:02;5.90;;;1.70;;
17496;SDS011;62150;43.582;1.456;2024-03-23T11:07:58;7.10;;;1.83;;
17496;SDS011;62150;43.582;1.456;2024-03-23T11:10:25;6.87;;;1.80;;
17496;SDS011;62150;43.582;1.456;2024-03-23T11:12:54;8.37;;;1.70;;
17496;SDS011;62150;43.582;1.456;2024-03-23T11:15:21;5.40;;;1.87;;
17496;SDS011;62150;43.582;1.456;2024-03-23T11:18:04;5.17;;;1.70;;
17496;SDS011;62150;43.582;1.456;2024-03-23T11:20:33;5.80;;;1.67;;
17496;SDS011;62150;43.582;1.456;2024-03-23T11:23:02;7.40;;;1.73;;
17496;SDS011;62150;43.582;1.456;2024-03-23T11:25:29;3.30;;;1.40;;
17496;SDS011;62150;43.582;1.456;2024-03-23T11:27:57;4.47;;;1.70;;
17496;SDS011;62150;43.582;1.456;2024-03-23T11:30:36;3.90;;;1.50;;
17496;SDS011;62150;43.582;1.456;2024-03-23T11:33:04;4.73;;;1.60;;
17496;SDS011;62150;43.582;1.456;2024-03-23T11:35:32;6.70;;;1.80;;
17496;SDS011;62150;43.582;1.456;2024-03-23T11:38:09;7.17;;;2.17;;
17496;SDS011;62150;43.582;1.456;2024-03-23T11:40:37;4.03;;;1.30;;
17496;SDS011;62150;43.582;1.456;2024-03-23T11:43:06;4.87;;;1.90;;
17496;SDS011;62150;43.582;1.456;2024-03-23T11:45:33;5.97;;;1.70;;
17496;SDS011;62150;43.582;1.456;2024-03-23T11:48:06;3.27;;;1.40;;
17496;SDS011;62150;43.582;1.456;2024-03-23T11:50:34;6.23;;;1.93;;
17496;SDS011;62150;43.582;1.456;2024-03-23T11:53:07;3.57;;;1.60;;
17496;SDS011;62150;43.582;1.456;2024-03-23T11:55:45;4.60;;;1.47;;
17496;SDS011;62150;43.582;1.456;2024-03-23T11:58:13;4.63;;;1.60;;
17496;SDS011;62150;43.582;1.456;2024-03-23T12:00:41;4.07;;;1.50;;
17496;SDS011;62150;43.582;1.456;2024-03-23T12:03:15;3.27;;;1.50;;
17496;SDS011;62150;43.582;1.456;2024-03-23T12:05:46;4.03;;;1.20;;
17496;SDS011;62150;43.582;1.456;2024-03-23T12:08:20;3.83;;;1.40;;
17496;SDS011;62150;43.582;1.456;2024-03-23T12:10:49;5.97;;;1.43;;
17496;SDS011;62150;43.582;1.456;2024-03-23T12:13:19;3.23;;;1.50;;
17496;SDS011;62150;43.582;1.456;2024-03-23T12:15:47;4.67;;;1.30;;
17496;SDS011;62150;43.582;1.456;2024-03-23T12:18:16;2.30;;;1.30;;
17496;SDS011;62150;43.582;1.456;2024-03-23T12:20:43;3.17;;;1.37;;
17496;SDS011;62150;43.582;1.456;2024-03-23T12:23:11;6.00;;;2.20;;
17496;SDS011;62150;43.582;1.456;2024-03-23T12:25:39;8.13;;;2.30;;
17496;SDS011;62150;43.582;1.456;2024-03-23T12:28:07;4.63;;;1.80;;
17496;SDS011;62150;43.582;1.456;2024-03-23T12:30:34;6.43;;;1.70;;
17496;SDS011;62150;43.582;1.456;2024-03-23T12:33:04;3.67;;;1.20;;
17496;SDS011;62150;43.582;1.456;2024-03-23T12:35:31;5.43;;;1.50;;
17496;SDS011;62150;43.582;1.456;2024-03-23T12:37:59;4.40;;;1.20;;
17496;SDS011;62150;43.582;1.456;2024-03-23T12:40:26;3.13;;;1.17;;
17496;SDS011;62150;43.582;1.456;2024-03-23T12:42:55;3.40;;;1.27;;
17496;SDS011;62150;43.582;1.456;2024-03-23T12:45:22;4.73;;;1.50;;
17496;SDS011;62150;43.582;1.456;2024-03-23T12:47:49;3.27;;;1.40;;
17496;SDS011;62150;43.582;1.456;2024-03-23T12:50:17;3.57;;;1.40;;
17496;SDS011;62150;43.582;1.456;2024-03-23T12:52:45;3.77;;;1.40;;
17496;SDS011;62150;43.582;1.456;2024-03-23T12:55:12;4.50;;;1.60;;
17496;SDS011;62150;43.582;1.456;2024-03-23T12:57:39;3.00;;;1.30;;
17496;SDS011;62150;43.582;1.456;2024-03-23T13:00:08;3.13;;;1.30;;
17496;SDS011;62150;43.582;1.456;2024-03-23T13:02:36;2.70;;;1.27;;
17496;SDS011;62150;43.582;1.456;2024-03-23T13:05:04;4.43;;;1.53;;
17496;SDS011;62150;43.582;1.456;2024-03-23T13:07:33;4.10;;;1.70;;
17496;SDS011;62150;43.582;1.456;2024-03-23T13:10:00;4.37;;;1.50;;
17496;SDS011;62150;43.582;1.456;2024-03-23T13:12:28;5.93;;;1.43;;
17496;SDS011;62150;43.582;1.456;2024-03-23T13:14:56;4.83;;;1.30;;
17496;SDS011;62150;43.582;1.456;2024-03-23T13:17:27;4.33;;;1.47;;
17496;SDS011;62150;43.582;1.456;2024-03-23T13:19:54;3.50;;;1.43;;
17496;SDS011;62150;43.582;1.456;2024-03-23T13:22:21;4.83;;;1.70;;
17496;SDS011;62150;43.582;1.456;2024-03-23T13:24:48;4.30;;;1.50;;
17496;SDS011;62150;43.582;1.456;2024-03-23T13:27:16;4.67;;;1.60;;
17496;SDS011;62150;43.582;1.456;2024-03-23T13:29:43;3.00;;;1.40;;
17496;SDS011;62150;43.582;1.456;2024-03-23T13:32:11;1.93;;;1.30;;
17496;SDS011;62150;43.582;1.456;2024-03-23T13:34:40;5.40;;;1.60;;
17496;SDS011;62150;43.582;1.456;2024-03-23T13:37:07;5.83;;;1.50;;
17496;SDS011;62150;43.582;1.456;2024-03-23T13:39:36;4.80;;;1.50;;
17496;SDS011;62150;43.582;1.456;2024-03-23T13:42:03;7.40;;;1.70;;
17496;SDS011;62150;43.582;1.456;2024-03-23T13:44:30;4.53;;;1.50;;
17496;SDS011;62150;43.582;1.456;2024-03-23T13:46:58;6.37;;;1.60;;
17496;SDS011;62150;43.582;1.456;2024-03-23T13:49:25;4.10;;;1.50;;
17496;SDS011;62150;43.582;1.456;2024-03-23T13:51:55;4.40;;;1.47;;
17496;SDS011;62150;43.582;1.456;2024-03-23T13:54:23;4.57;;;1.57;;
17496;SDS011;62150;43.582;1.456;2024-03-23T13:56:51;4.57;;;1.50;;
17496;SDS011;62150;43.582;1.456;2024-03-23T13:59:19;4.70;;;1.70;;
17496;SDS011;62150;43.582;1.456;2024-03-23T14:01:48;3.47;;;1.47;;
17496;SDS011;62150;43.582;1.456;2024-03-23T14:04:15;3.40;;;1.40;;
17496;SDS011;62150;43.582;1.456;2024-03-23T14:06:44;6.20;;;1.60;;
17496;SDS011;62150;43.582;1.456;2024-03-23T14:09:12;2.17;;;1.30;;
17496;SDS011;62150;43.582;1.456;2024-03-23T14:11:45;3.65;;;1.42;;
17496;SDS011;62150;43.582;1.456;2024-03-23T14:14:12;4.70;;;1.47;;
17496;SDS011;62150;43.582;1.456;2024-03-23T14:16:41;1.90;;;1.30;;
17496;SDS011;62150;43.582;1.456;2024-03-23T14:19:08;3.67;;;1.30;;
17496;SDS011;62150;43.582;1.456;2024-03-23T14:21:36;4.80;;;1.47;;
17496;SDS011;62150;43.582;1.456;2024-03-23T14:24:03;3.03;;;1.40;;
17496;SDS011;62150;43.582;1.456;2024-03-23T14:26:33;3.78;;;1.40;;
17496;SDS011;62150;43.582;1.456;2024-03-23T14:28:59;6.18;;;1.50;;
17496;SDS011;62150;43.582;1.456;2024-03-23T14:31:28;5.72;;;1.45;;
17496;SDS011;62150;43.582;1.456;2024-03-23T14:33:54;4.47;;;1.50;;
17496;SDS011;62150;43.582;1.456;2024-03-23T14:36:22;6.18;;;1.73;;
17496;SDS011;62150;43.582;1.456;2024-03-23T14:38:50;6.57;;;1.65;;
17496;SDS011;62150;43.582;1.456;2024-03-23T14:41:17;4.30;;;1.60;;
17496;SDS011;62150;43.582;1.456;2024-03-23T14:43:45;5.57;;;1.70;;
17496;SDS011;62150;43.582;1.456;2024-03-23T14:46:15;6.90;;;1.60;;
17496;SDS011;62150;43.582;1.456;2024-03-23T14:48:42;6.63;;;1.60;;
17496;SDS011;62150;43.582;1.456;2024-03-23T14:51:13;5.97;;;1.60;;
17496;SDS011;62150;43.582;1.456;2024-03-23T14:53:40;7.60;;;1.70;;
17496;SDS011;62150;43.582;1.456;2024-03-23T14:56:11;5.70;;;1.55;;
17496;SDS011;62150;43.582;1.456;2024-03-23T14:58:40;5.90;;;1.85;;
17496;SDS011;62150;43.582;1.456;2024-03-23T15:01:09;4.57;;;1.55;;
17496;SDS011;62150;43.582;1.456;2024-03-23T15:03:36;6.20;;;1.45;;
17496;SDS011;62150;43.582;1.456;2024-03-23T15:06:05;4.90;;;1.53;;
17496;SDS011;62150;43.582;1.456;2024-03-23T15:08:34;4.93;;;1.60;;
17496;SDS011;62150;43.582;1.456;2024-03-23T15:11:02;3.60;;;1.58;;
17496;SDS011;62150;43.582;1.456;2024-03-23T15:13:30;3.20;;;1.45;;
17496;SDS011;62150;43.582;1.456;2024-03-23T15:15:57;4.85;;;1.42;;
17496;SDS011;62150;43.582;1.456;2024-03-23T15:18:25;7.47;;;2.38;;
17496;SDS011;62150;43.582;1.456;2024-03-23T15:20:54;5.30;;;1.60;;
17496;SDS011;62150;43.582;1.456;2024-03-23T15:23:20;5.05;;;1.42;;
17496;SDS011;62150;43.582;1.456;2024-03-23T15:25:53;5.32;;;1.55;;
17496;SDS011;62150;43.582;1.456;2024-03-23T15:28:20;4.43;;;1.65;;
17496;SDS011;62150;43.582;1.456;2024-03-23T15:30:47;6.80;;;1.80;;
17496;SDS011;62150;43.582;1.456;2024-03-23T15:33:14;5.63;;;1.60;;
17496;SDS011;62150;43.582;1.456;2024-03-23T15:35:43;6.32;;;1.83;;
17496;SDS011;62150;43.582;1.456;2024-03-23T15:38:10;6.63;;;1.63;;
17496;SDS011;62150;43.582;1.456;2024-03-23T15:40:37;5.43;;;1.45;;
17496;SDS011;62150;43.582;1.456;2024-03-23T15:43:04;4.72;;;1.70;;
17496;SDS011;62150;43.582;1.456;2024-03-23T15:45:31;6.45;;;1.70;;
17496;SDS011;62150;43.582;1.456;2024-03-23T15:47:58;3.60;;;1.50;;
17496;SDS011;62150;43.582;1.456;2024-03-23T15:50:25;6.25;;;1.42;;
17496;SDS011;62150;43.582;1.456;2024-03-23T15:52:53;5.60;;;1.80;;
17496;SDS011;62150;43.582;1.456;2024-03-23T15:55:21;6.95;;;2.00;;
17496;SDS011;62150;43.582;1.456;2024-03-23T15:57:47;5.70;;;1.50;;
17496;SDS011;62150;43.582;1.456;2024-03-23T16:00:15;6.10;;;1.70;;
17496;SDS011;62150;43.582;1.456;2024-03-23T16:02:42;5.53;;;1.60;;
17496;SDS011;62150;43.582;1.456;2024-03-23T16:05:11;5.10;;;1.60;;
17496;SDS011;62150;43.582;1.456;2024-03-23T16:07:38;6.25;;;1.80;;
17496;SDS011;62150;43.582;1.456;2024-03-23T16:10:08;5.22;;;1.52;;
17496;SDS011;62150;43.582;1.456;2024-03-23T16:12:36;4.28;;;1.65;;
17496;SDS011;62150;43.582;1.456;2024-03-23T16:15:05;7.38;;;1.80;;
17496;SDS011;62150;43.582;1.456;2024-03-23T16:17:32;6.10;;;1.77;;
17496;SDS011;62150;43.582;1.456;2024-03-23T16:20:01;5.15;;;1.60;;
17496;SDS011;62150;43.582;1.456;2024-03-23T16:22:28;6.75;;;1.67;;
17496;SDS011;62150;43.582;1.456;2024-03-23T16:24:56;2.72;;;1.40;;
17496;SDS011;62150;43.582;1.456;2024-03-23T16:27:24;5.80;;;1.50;;
17496;SDS011;62150;43.582;1.456;2024-03-23T16:29:52;5.93;;;1.70;;
17496;SDS011;62150;43.582;1.456;2024-03-23T16:32:19;7.25;;;1.58;;
17496;SDS011;62150;43.582;1.456;2024-03-23T16:34:48;5.65;;;1.90;;
17496;SDS011;62150;43.582;1.456;2024-03-23T16:37:15;2.58;;;1.23;;
17496;SDS011;62150;43.582;1.456;2024-03-23T16:39:42;4.03;;;1.55;;
17496;SDS011;62150;43.582;1.456;2024-03-23T16:42:09;6.57;;;1.60;;
17496;SDS011;62150;43.582;1.456;2024-03-23T16:44:38;4.63;;;1.63;;
17496;SDS011;62150;43.582;1.456;2024-03-23T16:47:04;5.40;;;1.70;;
17496;SDS011;62150;43.582;1.456;2024-03-23T16:49:32;5.63;;;1.83;;
17496;SDS011;62150;43.582;1.456;2024-03-23T16:51:59;2.45;;;1.40;;
17496;SDS011;62150;43.582;1.456;2024-03-23T16:54:26;3.40;;;1.60;;
17496;SDS011;62150;43.582;1.456;2024-03-23T16:56:53;5.35;;;1.73;;
17496;SDS011;62150;43.582;1.456;2024-03-23T16:59:21;5.43;;;1.60;;
17496;SDS011;62150;43.582;1.456;2024-03-23T17:01:49;3.25;;;1.48;;
17496;SDS011;62150;43.582;1.456;2024-03-23T17:04:16;4.72;;;1.50;;
17496;SDS011;62150;43.582;1.456;2024-03-23T17:06:43;3.67;;;1.40;;
17496;SDS011;62150;43.582;1.456;2024-03-23T17:09:13;5.05;;;1.60;;
17496;SDS011;62150;43.582;1.456;2024-03-23T17:11:41;6.03;;;1.60;;
17496;SDS011;62150;43.582;1.456;2024-03-23T17:14:08;4.50;;;1.48;;
17496;SDS011;62150;43.582;1.456;2024-03-23T17:16:37;4.47;;;1.50;;
17496;SDS011;62150;43.582;1.456;2024-03-23T17:19:05;4.57;;;1.60;;
17496;SDS011;62150;43.582;1.456;2024-03-23T17:21:33;5.78;;;1.73;;
17496;SDS011;62150;43.582;1.456;2024-03-23T17:24:00;5.70;;;1.80;;
17496;SDS011;62150;43.582;1.456;2024-03-23T17:26:28;4.87;;;1.60;;
17496;SDS011;62150;43.582;1.456;2024-03-23T17:28:54;4.53;;;1.73;;
17496;SDS011;62150;43.582;1.456;2024-03-23T17:31:22;6.53;;;1.70;;
17496;SDS011;62150;43.582;1.456;2024-03-23T17:33:49;4.57;;;1.65;;
17496;SDS011;62150;43.582;1.456;2024-03-23T17:36:19;5.30;;;1.40;;
17496;SDS011;62150;43.582;1.456;2024-03-23T17:38:52;3.95;;;1.60;;
17496;SDS011;62150;43.582;1.456;2024-03-23T17:41:20;6.50;;;1.77;;
17496;SDS011;62150;43.582;1.456;2024-03-23T17:43:46;5.63;;;1.80;;
17496;SDS011;62150;43.582;1.456;2024-03-23T17:46:14;4.90;;;1.67;;
17496;SDS011;62150;43.582;1.456;2024-03-23T17:48:41;7.83;;;1.67;;
17496;SDS011;62150;43.582;1.456;2024-03-23T17:51:08;6.75;;;2.20;;
17496;SDS011;62150;43.582;1.456;2024-03-23T17:53:40;6.03;;;1.83;;
17496;SDS011;62150;43.582;1.456;2024-03-23T17:56:08;6.30;;;1.70;;
17496;SDS011;62150;43.582;1.456;2024-03-23T17:58:35;5.70;;;1.92;;
17496;SDS011;62150;43.582;1.456;2024-03-23T18:01:06;4.47;;;1.60;;
17496;SDS011;62150;43.582;1.456;2024-03-23T18:03:33;5.30;;;1.80;;
17496;SDS011;62150;43.582;1.456;2024-03-23T18:06:01;6.33;;;1.80;;
17496;SDS011;62150;43.582;1.456;2024-03-23T18:08:28;5.87;;;1.77;;
17496;SDS011;62150;43.582;1.456;2024-03-23T18:10:57;5.33;;;1.70;;
17496;SDS011;62150;43.582;1.456;2024-03-23T18:13:32;6.72;;;1.88;;
17496;SDS011;62150;43.582;1.456;2024-03-23T18:16:00;5.07;;;1.87;;
17496;SDS011;62150;43.582;1.456;2024-03-23T18:18:26;7.90;;;1.90;;
17496;SDS011;62150;43.582;1.456;2024-03-23T18:20:54;6.43;;;1.80;;
17496;SDS011;62150;43.582;1.456;2024-03-23T18:23:20;7.73;;;2.03;;
17496;SDS011;62150;43.582;1.456;2024-03-23T18:25:52;2.90;;;1.60;;
17496;SDS011;62150;43.582;1.456;2024-03-23T18:28:22;5.37;;;1.70;;
17496;SDS011;62150;43.582;1.456;2024-03-23T18:30:55;6.17;;;1.90;;
17496;SDS011;62150;43.582;1.456;2024-03-23T18:33:22;5.40;;;2.03;;
17496;SDS011;62150;43.582;1.456;2024-03-23T18:35:51;7.87;;;2.60;;
17496;SDS011;62150;43.582;1.456;2024-03-23T18:38:17;3.57;;;2.00;;
17496;SDS011;62150;43.582;1.456;2024-03-23T18:40:45;6.47;;;2.00;;
17496;SDS011;62150;43.582;1.456;2024-03-23T18:43:12;10.93;;;2.27;;
17496;SDS011;62150;43.582;1.456;2024-03-23T18:45:46;9.73;;;2.60;;
17496;SDS011;62150;43.582;1.456;2024-03-23T18:48:13;6.67;;;2.27;;
17496;SDS011;62150;43.582;1.456;2024-03-23T18:50:40;6.63;;;2.07;;
17496;SDS011;62150;43.582;1.456;2024-03-23T18:53:07;6.10;;;2.17;;
17496;SDS011;62150;43.582;1.456;2024-03-23T18:55:35;10.50;;;2.73;;
17496;SDS011;62150;43.582;1.456;2024-03-23T18:58:02;7.50;;;2.50;;
17496;SDS011;62150;43.582;1.456;2024-03-23T19:00:30;7.63;;;2.40;;
17496;SDS011;62150;43.582;1.456;2024-03-23T19:02:58;8.03;;;2.90;;
17496;SDS011;62150;43.582;1.456;2024-03-23T19:05:26;6.40;;;2.33;;
17496;SDS011;62150;43.582;1.456;2024-03-23T19:07:52;7.87;;;2.63;;
17496;SDS011;62150;43.582;1.456;2024-03-23T19:10:20;7.60;;;2.37;;
17496;SDS011;62150;43.582;1.456;2024-03-23T19:12:46;5.97;;;2.40;;
17496;SDS011;62150;43.582;1.456;2024-03-23T19:15:14;7.27;;;2.50;;
17496;SDS011;62150;43.582;1.456;2024-03-23T19:17:41;8.33;;;2.60;;
17496;SDS011;62150;43.582;1.456;2024-03-23T19:20:11;4.90;;;2.20;;
17496;SDS011;62150;43.582;1.456;2024-03-23T19:22:39;6.83;;;2.37;;
17496;SDS011;62150;43.582;1.456;2024-03-23T19:25:07;5.60;;;2.20;;
17496;SDS011;62150;43.582;1.456;2024-03-23T19:27:34;5.73;;;2.20;;
17496;SDS011;62150;43.582;1.456;2024-03-23T19:30:04;7.47;;;2.40;;
17496;SDS011;62150;43.582;1.456;2024-03-23T19:32:31;8.17;;;2.40;;